1930 NOT_NAMED (1930193N19122)


IBTrACS version v04r00. Visit IBTrACS website for data access.
Please direct all questions to the IBTrACS Q and A forum

Storm track - Intensity - Wind Radii - Intensity Data - Source Data - All data

Summary Information

Storm ID 1930193N19122
Start Jul 11 22Z
Landfall Jul 13 09Z, Jul 14 09Z
End Jul 14 22Z
ATCF IDs
Track status Best track data.

Storm track plot

Map of storm track

Intensity plots

No Intensity information for this storm


Radial wind information

No radial wind information for this storm


Position and Intensity Table

BASIN ISO_TIME_________ NATURE LAT LON
degrees north degrees east
WP 1930-07-11 22:00:00 NR 19.10 122.10
WP 1930-07-12 00:00:00 NR 19.45 122.11
WP 03:00:00 NR 19.97 122.12
WP 06:00:00 NR 20.50 122.12
WP 09:00:00 NR 21.02 122.11
WP 10:00:00 NR 21.20 122.10
WP 12:00:00 NR 21.55 122.08
WP 15:00:00 NR 22.08 122.04
WP 18:00:00 NR 22.59 121.99
WP 21:00:00 NR 23.05 121.92
WP 22:00:00 NR 23.20 121.90
WP 1930-07-13 00:00:00 NR 23.47 121.86
WP 03:00:00 NR 23.83 121.78
WP 06:00:00 NR 24.17 121.71
WP 09:00:00 NR 24.49 121.63
WP 10:00:00 NR 24.60 121.60
WP 12:00:00 NR 24.83 121.56
WP 15:00:00 NR 25.18 121.51
WP 18:00:00 NR 25.53 121.44
WP 21:00:00 NR 25.88 121.34
WP 22:00:00 NR 26.00 121.30
WP 1930-07-14 00:00:00 NR 26.25 121.21
WP 03:00:00 NR 26.62 121.03
WP 06:00:00 NR 27.00 120.83
WP 09:00:00 NR 27.38 120.59
WP 10:00:00 NR 27.50 120.50
WP 12:00:00 NR 27.74 120.32
WP 15:00:00 NR 28.10 120.03
WP 18:00:00 NR 28.44 119.72
WP 21:00:00 NR 28.79 119.41
WP 22:00:00 NR 28.90 119.30

Source Information

Agency Information
USA
TOKYO
CMA
HKO
NEWDELHI
REUNION
BOM
NADI
WELLINGTON
DS824
TD9636 cons_worldwide_trop_cyclone_18710101-19891231-003:Line=8567
TD9635
NEUMANN
MLC

All available IBTrACS Data

SEASON BASIN SUBBASIN ISO_TIME_________ NATURE LAT LON DIST2LAND LANDFALL IFLAG USA SSHS TD9636 LAT TD9636 LON TD9636 STAGE STORM SPEED STORM DIR
Year degrees north degrees east km km 1 degrees north degrees east kts degrees
1930 WP MM 1930-07-11 22:00:00 NR 19.10 122.10 78 78 __________O___ -1 19.10 122.10 4 11 0
1930 WP MM 1930-07-12 00:00:00 NR 19.45 122.11 111 123 __________P___ -1 19.45 122.11 4 11 0
1930 WP MM 03:00:00 NR 19.97 122.12 178 178 __________P___ -1 19.97 122.12 4 11 1
1930 WP MM 06:00:00 NR 20.50 122.12 199 159 __________P___ -1 20.50 122.12 4 11 359
1930 WP MM 09:00:00 NR 21.02 122.11 159 146 __________P___ -1 21.02 122.11 4 11 0
1930 WP MM 10:00:00 NR 21.20 122.10 146 128 __________O___ -1 21.20 122.10 4 11 357
1930 WP MM 12:00:00 NR 21.55 122.08 128 113 __________P___ -1 21.55 122.08 4 11 356
1930 WP MM 15:00:00 NR 22.08 122.04 113 83 __________P___ -1 22.08 122.04 4 10 355
1930 WP MM 18:00:00 NR 22.59 121.99 83 51 __________P___ -1 22.59 121.99 4 10 354
1930 WP MM 21:00:00 NR 23.05 121.92 51 51 __________P___ -1 23.05 121.92 4 9 352
1930 WP MM 22:00:00 NR 23.20 121.90 51 46 __________O___ -1 23.20 121.90 4 8 352
1930 WP MM 1930-07-13 00:00:00 NR 23.47 121.86 46 30 __________P___ -1 23.47 121.86 4 8 351
1930 WP MM 03:00:00 NR 23.83 121.78 30 10 __________P___ -1 23.83 121.78 4 7 349
1930 WP MM 06:00:00 NR 24.17 121.71 10 0 __________P___ -1 24.17 121.71 4 7 348
1930 WP MM 09:00:00 NR 24.49 121.63 0 0 __________P___ -1 24.49 121.63 4 7 348
1930 WP MM 10:00:00 NR 24.60 121.60 0 0 __________O___ -1 24.60 121.60 4 7 350
1930 WP MM 12:00:00 NR 24.83 121.56 0 0 __________P___ -1 24.83 121.56 4 7 352
1930 WP MM 15:00:00 NR 25.18 121.51 0 0 __________P___ -1 25.18 121.51 4 7 351
1930 WP MM 18:00:00 NR 25.53 121.44 33 33 __________P___ -1 25.53 121.44 4 7 348
1930 WP MM 21:00:00 NR 25.88 121.34 78 78 __________P___ -1 25.88 121.34 4 7 345
1930 WP MM 22:00:00 NR 26.00 121.30 89 89 __________O___ -1 26.00 121.30 4 8 341
1930 WP MM 1930-07-14 00:00:00 NR 26.25 121.21 113 81 __________P___ -1 26.25 121.21 4 8 339
1930 WP MM 03:00:00 NR 26.62 121.03 81 37 __________P___ -1 26.62 121.03 4 8 336
1930 WP MM 06:00:00 NR 27.00 120.83 37 0 __________P___ -1 27.00 120.83 4 9 332
1930 WP MM 09:00:00 NR 27.38 120.59 0 0 __________P___ -1 27.38 120.59 4 9 330
1930 WP MM 10:00:00 NR 27.50 120.50 0 0 __________O___ -1 27.50 120.50 4 9 327
1930 WP MM 12:00:00 NR 27.74 120.32 0 0 __________P___ -1 27.74 120.32 4 9 325
1930 WP MM 15:00:00 NR 28.10 120.03 0 0 __________P___ -1 28.10 120.03 4 9 323
1930 WP MM 18:00:00 NR 28.44 119.72 0 0 __________P___ -1 28.44 119.72 4 9 322
1930 WP MM 21:00:00 NR 28.79 119.41 0 0 __________P___ -1 28.79 119.41 4 9 321
1930 WP MM 22:00:00 NR 28.90 119.30 0 __________O___ -1 28.90 119.30 4 9 320